Waterford, Alabama
Current Conditions -  °F | °C
As of 7:53 AM on Wednesday 26 Nov 2014 (Local Time) from KHEY Reporting Station
Clear Clear  
Wind Chill: 38°   Ceiling: Unl
Heat Index: 42°   Visibility: 10mi
Dew Point: 34°   Wind: 6mph
Humidity: 73%   Direction: NA
Pressure: 30.21"   Gusts: NA
Location:  31.343°N, 85.5882°W
Report Text: KHEY 261353Z AUTO VRB05KT 10SM CLR 06/01 A3021 RMK AO2 PRESRR SLP222 T00560011
Loading
Personal Weather Stations






























Interactive Weather Map New forecast layout! Learn more

10-Day Weather Forecast

Advertisements
Track Severe Weather on mobile